sensor_id;sensor_type;location;lat;lon;timestamp;temperature;humidity
10431;DHT22;5262;59.958;17.726;2022-11-20T00:02:24;-0.20;99.90
10431;DHT22;5262;59.958;17.726;2022-11-20T00:04:50;-0.30;99.90
10431;DHT22;5262;59.958;17.726;2022-11-20T00:07:16;-0.30;99.90
10431;DHT22;5262;59.958;17.726;2022-11-20T00:09:41;-0.20;99.90
10431;DHT22;5262;59.958;17.726;2022-11-20T00:12:07;-0.20;99.90
10431;DHT22;5262;59.958;17.726;2022-11-20T00:14:32;-0.20;99.90
10431;DHT22;5262;59.958;17.726;2022-11-20T00:16:58;-0.20;99.90
10431;DHT22;5262;59.958;17.726;2022-11-20T00:19:24;-0.20;99.90
10431;DHT22;5262;59.958;17.726;2022-11-20T00:21:50;-0.20;99.90
10431;DHT22;5262;59.958;17.726;2022-11-20T00:24:17;-0.30;99.90
10431;DHT22;5262;59.958;17.726;2022-11-20T00:26:42;-0.20;99.90
10431;DHT22;5262;59.958;17.726;2022-11-20T00:29:09;-0.20;99.90
10431;DHT22;5262;59.958;17.726;2022-11-20T00:31:36;-0.30;99.90
10431;DHT22;5262;59.958;17.726;2022-11-20T00:34:01;-0.20;99.90
10431;DHT22;5262;59.958;17.726;2022-11-20T00:36:28;-0.20;99.90
10431;DHT22;5262;59.958;17.726;2022-11-20T00:38:56;-0.30;99.90
10431;DHT22;5262;59.958;17.726;2022-11-20T00:41:23;-0.20;99.90
10431;DHT22;5262;59.958;17.726;2022-11-20T00:43:49;-0.20;99.90
10431;DHT22;5262;59.958;17.726;2022-11-20T00:46:20;-0.20;99.90
10431;DHT22;5262;59.958;17.726;2022-11-20T00:48:46;-0.20;99.90
10431;DHT22;5262;59.958;17.726;2022-11-20T00:51:14;-0.20;99.90
10431;DHT22;5262;59.958;17.726;2022-11-20T00:53:40;-0.30;99.90
10431;DHT22;5262;59.958;17.726;2022-11-20T00:56:09;-0.30;99.90
10431;DHT22;5262;59.958;17.726;2022-11-20T00:58:38;-0.20;99.90
10431;DHT22;5262;59.958;17.726;2022-11-20T01:01:06;-0.30;99.90
10431;DHT22;5262;59.958;17.726;2022-11-20T01:03:33;-0.30;99.90
10431;DHT22;5262;59.958;17.726;2022-11-20T01:06:09;-0.30;99.90
10431;DHT22;5262;59.958;17.726;2022-11-20T01:08:36;-0.30;99.90
10431;DHT22;5262;59.958;17.726;2022-11-20T01:11:04;-0.30;99.90
10431;DHT22;5262;59.958;17.726;2022-11-20T01:13:30;-0.30;99.90
10431;DHT22;5262;59.958;17.726;2022-11-20T01:16:07;-0.30;99.90
10431;DHT22;5262;59.958;17.726;2022-11-20T01:18:34;-0.30;99.90
10431;DHT22;5262;59.958;17.726;2022-11-20T01:21:07;-0.30;99.90
10431;DHT22;5262;59.958;17.726;2022-11-20T01:23:35;-0.30;99.90
10431;DHT22;5262;59.958;17.726;2022-11-20T01:26:03;-0.30;99.90
10431;DHT22;5262;59.958;17.726;2022-11-20T01:28:29;-0.30;99.90
10431;DHT22;5262;59.958;17.726;2022-11-20T01:30:55;-0.30;99.90
10431;DHT22;5262;59.958;17.726;2022-11-20T01:33:21;-0.30;99.90
10431;DHT22;5262;59.958;17.726;2022-11-20T01:35:46;-0.30;99.90
10431;DHT22;5262;59.958;17.726;2022-11-20T01:38:12;-0.30;99.90
10431;DHT22;5262;59.958;17.726;2022-11-20T01:40:38;-0.30;99.90
10431;DHT22;5262;59.958;17.726;2022-11-20T01:43:33;-0.30;99.90
10431;DHT22;5262;59.958;17.726;2022-11-20T01:46:16;-0.30;99.90
10431;DHT22;5262;59.958;17.726;2022-11-20T01:48:57;-0.30;99.90
10431;DHT22;5262;59.958;17.726;2022-11-20T01:51:45;-0.30;99.90
10431;DHT22;5262;59.958;17.726;2022-11-20T01:54:17;-0.30;99.90
10431;DHT22;5262;59.958;17.726;2022-11-20T01:56:45;-0.40;99.90
10431;DHT22;5262;59.958;17.726;2022-11-20T01:59:14;-0.30;99.90
10431;DHT22;5262;59.958;17.726;2022-11-20T02:01:41;-0.30;99.90
10431;DHT22;5262;59.958;17.726;2022-11-20T02:04:08;-0.30;99.90
10431;DHT22;5262;59.958;17.726;2022-11-20T02:06:53;-0.30;99.90
10431;DHT22;5262;59.958;17.726;2022-11-20T02:09:20;-0.30;99.90
10431;DHT22;5262;59.958;17.726;2022-11-20T02:11:46;-0.30;99.90
10431;DHT22;5262;59.958;17.726;2022-11-20T02:14:12;-0.30;99.90
10431;DHT22;5262;59.958;17.726;2022-11-20T02:16:46;-0.30;99.90
10431;DHT22;5262;59.958;17.726;2022-11-20T02:19:31;-0.30;99.90
10431;DHT22;5262;59.958;17.726;2022-11-20T02:22:22;-0.30;99.90
10431;DHT22;5262;59.958;17.726;2022-11-20T02:24:52;-0.30;99.90
10431;DHT22;5262;59.958;17.726;2022-11-20T02:27:18;-0.30;99.90
10431;DHT22;5262;59.958;17.726;2022-11-20T02:29:51;-0.30;99.90
10431;DHT22;5262;59.958;17.726;2022-11-20T02:32:22;-0.30;99.90
10431;DHT22;5262;59.958;17.726;2022-11-20T02:34:48;-0.30;99.90
10431;DHT22;5262;59.958;17.726;2022-11-20T02:37:14;-0.40;99.90
10431;DHT22;5262;59.958;17.726;2022-11-20T02:39:41;-0.40;99.90
10431;DHT22;5262;59.958;17.726;2022-11-20T02:42:07;-0.30;99.90
10431;DHT22;5262;59.958;17.726;2022-11-20T02:44:33;-0.40;99.90
10431;DHT22;5262;59.958;17.726;2022-11-20T02:46:59;-0.40;99.90
10431;DHT22;5262;59.958;17.726;2022-11-20T02:49:25;-0.40;99.90
10431;DHT22;5262;59.958;17.726;2022-11-20T02:51:51;-0.40;99.90
10431;DHT22;5262;59.958;17.726;2022-11-20T02:54:17;-0.40;99.90
10431;DHT22;5262;59.958;17.726;2022-11-20T02:56:43;-0.30;99.90
10431;DHT22;5262;59.958;17.726;2022-11-20T02:59:09;-0.40;99.90
10431;DHT22;5262;59.958;17.726;2022-11-20T03:01:35;-0.40;99.90
10431;DHT22;5262;59.958;17.726;2022-11-20T03:04:01;-0.40;99.90
10431;DHT22;5262;59.958;17.726;2022-11-20T03:06:27;-0.40;99.90
10431;DHT22;5262;59.958;17.726;2022-11-20T03:08:52;-0.40;99.90
10431;DHT22;5262;59.958;17.726;2022-11-20T03:11:18;-0.40;99.90
10431;DHT22;5262;59.958;17.726;2022-11-20T03:13:44;-0.40;99.90
10431;DHT22;5262;59.958;17.726;2022-11-20T03:16:19;-0.40;99.90
10431;DHT22;5262;59.958;17.726;2022-11-20T03:18:45;-0.40;99.90
10431;DHT22;5262;59.958;17.726;2022-11-20T03:21:12;-0.40;99.90
10431;DHT22;5262;59.958;17.726;2022-11-20T03:23:38;-0.40;99.90
10431;DHT22;5262;59.958;17.726;2022-11-20T03:26:24;-0.40;99.90
10431;DHT22;5262;59.958;17.726;2022-11-20T03:29:00;-0.40;99.90
10431;DHT22;5262;59.958;17.726;2022-11-20T03:31:45;-0.40;99.90
10431;DHT22;5262;59.958;17.726;2022-11-20T03:34:11;-0.40;99.90
10431;DHT22;5262;59.958;17.726;2022-11-20T03:36:41;-0.40;99.90
10431;DHT22;5262;59.958;17.726;2022-11-20T03:39:08;-0.40;99.90
10431;DHT22;5262;59.958;17.726;2022-11-20T03:41:38;-0.40;99.90
10431;DHT22;5262;59.958;17.726;2022-11-20T03:44:07;-0.40;99.90
10431;DHT22;5262;59.958;17.726;2022-11-20T03:46:33;-0.40;99.90
10431;DHT22;5262;59.958;17.726;2022-11-20T03:48:59;-0.40;99.90
10431;DHT22;5262;59.958;17.726;2022-11-20T03:51:31;-0.40;99.90
10431;DHT22;5262;59.958;17.726;2022-11-20T03:53:59;-0.40;99.90
10431;DHT22;5262;59.958;17.726;2022-11-20T03:56:30;-0.40;99.90
10431;DHT22;5262;59.958;17.726;2022-11-20T03:58:56;-0.50;99.90
10431;DHT22;5262;59.958;17.726;2022-11-20T04:01:25;-0.50;99.90
10431;DHT22;5262;59.958;17.726;2022-11-20T04:03:55;-0.50;99.90
10431;DHT22;5262;59.958;17.726;2022-11-20T04:06:23;-0.50;99.90
10431;DHT22;5262;59.958;17.726;2022-11-20T04:08:49;-0.50;99.90
10431;DHT22;5262;59.958;17.726;2022-11-20T04:11:21;-0.50;99.90
10431;DHT22;5262;59.958;17.726;2022-11-20T04:13:55;-0.50;99.90
10431;DHT22;5262;59.958;17.726;2022-11-20T04:16:41;-0.50;99.90
10431;DHT22;5262;59.958;17.726;2022-11-20T04:19:26;-0.50;99.90
10431;DHT22;5262;59.958;17.726;2022-11-20T04:22:12;-0.40;99.90
10431;DHT22;5262;59.958;17.726;2022-11-20T04:24:58;-0.50;99.90
10431;DHT22;5262;59.958;17.726;2022-11-20T04:27:43;-0.50;99.90
10431;DHT22;5262;59.958;17.726;2022-11-20T04:30:09;-0.50;99.90
10431;DHT22;5262;59.958;17.726;2022-11-20T04:32:56;-0.50;99.90
10431;DHT22;5262;59.958;17.726;2022-11-20T04:35:42;-0.50;99.90
10431;DHT22;5262;59.958;17.726;2022-11-20T04:38:28;-0.50;99.90
10431;DHT22;5262;59.958;17.726;2022-11-20T04:41:19;-0.50;99.90
10431;DHT22;5262;59.958;17.726;2022-11-20T04:44:05;-0.50;99.90
10431;DHT22;5262;59.958;17.726;2022-11-20T04:46:51;-0.50;99.90
10431;DHT22;5262;59.958;17.726;2022-11-20T04:49:16;-0.40;99.90
10431;DHT22;5262;59.958;17.726;2022-11-20T04:51:47;-0.50;99.90
10431;DHT22;5262;59.958;17.726;2022-11-20T04:54:13;-0.50;99.90
10431;DHT22;5262;59.958;17.726;2022-11-20T04:56:39;-0.50;99.90
10431;DHT22;5262;59.958;17.726;2022-11-20T04:59:04;-0.50;99.90
10431;DHT22;5262;59.958;17.726;2022-11-20T05:01:30;-0.50;99.90
10431;DHT22;5262;59.958;17.726;2022-11-20T05:03:56;-0.50;99.90
10431;DHT22;5262;59.958;17.726;2022-11-20T05:06:22;-0.50;99.90
10431;DHT22;5262;59.958;17.726;2022-11-20T05:08:48;-0.50;99.90
10431;DHT22;5262;59.958;17.726;2022-11-20T05:11:17;-0.50;99.90
10431;DHT22;5262;59.958;17.726;2022-11-20T05:13:43;-0.50;99.90
10431;DHT22;5262;59.958;17.726;2022-11-20T05:16:11;-0.50;99.90
10431;DHT22;5262;59.958;17.726;2022-11-20T05:18:38;-0.50;99.90
10431;DHT22;5262;59.958;17.726;2022-11-20T05:21:05;-0.50;99.90
10431;DHT22;5262;59.958;17.726;2022-11-20T05:23:31;-0.50;99.90
10431;DHT22;5262;59.958;17.726;2022-11-20T05:25:58;-0.50;99.90
10431;DHT22;5262;59.958;17.726;2022-11-20T05:28:24;-0.50;99.90
10431;DHT22;5262;59.958;17.726;2022-11-20T05:30:50;-0.40;99.90
10431;DHT22;5262;59.958;17.726;2022-11-20T05:33:16;-0.40;99.90
10431;DHT22;5262;59.958;17.726;2022-11-20T05:35:43;-0.40;99.90
10431;DHT22;5262;59.958;17.726;2022-11-20T05:38:09;-0.40;99.90
10431;DHT22;5262;59.958;17.726;2022-11-20T05:40:35;-0.40;99.90
10431;DHT22;5262;59.958;17.726;2022-11-20T05:43:01;-0.40;99.90
10431;DHT22;5262;59.958;17.726;2022-11-20T05:45:26;-0.40;99.90
10431;DHT22;5262;59.958;17.726;2022-11-20T05:47:52;-0.40;99.90
10431;DHT22;5262;59.958;17.726;2022-11-20T05:50:18;-0.40;99.90
10431;DHT22;5262;59.958;17.726;2022-11-20T05:52:44;-0.40;99.90
10431;DHT22;5262;59.958;17.726;2022-11-20T05:55:09;-0.40;99.90
10431;DHT22;5262;59.958;17.726;2022-11-20T05:57:35;-0.40;99.90
10431;DHT22;5262;59.958;17.726;2022-11-20T06:00:02;-0.40;99.90
10431;DHT22;5262;59.958;17.726;2022-11-20T06:02:28;-0.40;99.90
10431;DHT22;5262;59.958;17.726;2022-11-20T06:04:54;-0.40;99.90
10431;DHT22;5262;59.958;17.726;2022-11-20T06:07:19;-0.40;99.90
10431;DHT22;5262;59.958;17.726;2022-11-20T06:09:45;-0.40;99.90
10431;DHT22;5262;59.958;17.726;2022-11-20T06:12:11;-0.40;99.90
10431;DHT22;5262;59.958;17.726;2022-11-20T06:14:36;-0.40;99.90
10431;DHT22;5262;59.958;17.726;2022-11-20T06:17:02;-0.40;99.90
10431;DHT22;5262;59.958;17.726;2022-11-20T06:19:27;-0.50;99.90
10431;DHT22;5262;59.958;17.726;2022-11-20T06:21:53;-0.50;99.90
10431;DHT22;5262;59.958;17.726;2022-11-20T06:24:19;-0.50;99.90
10431;DHT22;5262;59.958;17.726;2022-11-20T06:26:44;-0.50;99.90
10431;DHT22;5262;59.958;17.726;2022-11-20T06:29:10;-0.50;99.90
10431;DHT22;5262;59.958;17.726;2022-11-20T06:31:36;-0.50;99.90
10431;DHT22;5262;59.958;17.726;2022-11-20T06:34:04;-0.50;99.90
10431;DHT22;5262;59.958;17.726;2022-11-20T06:36:31;-0.50;99.90
10431;DHT22;5262;59.958;17.726;2022-11-20T06:38:57;-0.50;99.90
10431;DHT22;5262;59.958;17.726;2022-11-20T06:41:23;-0.50;99.90
10431;DHT22;5262;59.958;17.726;2022-11-20T06:43:49;-0.50;99.90
10431;DHT22;5262;59.958;17.726;2022-11-20T06:46:17;-0.50;99.90
10431;DHT22;5262;59.958;17.726;2022-11-20T06:48:46;-0.40;99.90
10431;DHT22;5262;59.958;17.726;2022-11-20T06:51:12;-0.40;99.90
10431;DHT22;5262;59.958;17.726;2022-11-20T06:53:38;-0.40;99.90
10431;DHT22;5262;59.958;17.726;2022-11-20T06:56:05;-0.40;99.90
10431;DHT22;5262;59.958;17.726;2022-11-20T06:58:32;-0.40;99.90
10431;DHT22;5262;59.958;17.726;2022-11-20T07:00:59;-0.40;99.90
10431;DHT22;5262;59.958;17.726;2022-11-20T07:03:25;-0.40;99.90
10431;DHT22;5262;59.958;17.726;2022-11-20T07:05:51;-0.40;99.90
10431;DHT22;5262;59.958;17.726;2022-11-20T07:08:16;-0.40;99.90
10431;DHT22;5262;59.958;17.726;2022-11-20T07:10:42;-0.40;99.90
10431;DHT22;5262;59.958;17.726;2022-11-20T07:13:08;-0.30;99.90
10431;DHT22;5262;59.958;17.726;2022-11-20T07:15:33;-0.30;99.90
10431;DHT22;5262;59.958;17.726;2022-11-20T07:17:59;-0.30;99.90
10431;DHT22;5262;59.958;17.726;2022-11-20T07:20:25;-0.30;99.90
10431;DHT22;5262;59.958;17.726;2022-11-20T07:22:55;-0.30;99.90
10431;DHT22;5262;59.958;17.726;2022-11-20T07:25:21;-0.30;99.90
10431;DHT22;5262;59.958;17.726;2022-11-20T07:27:47;-0.30;99.90
10431;DHT22;5262;59.958;17.726;2022-11-20T07:30:14;-0.30;99.90
10431;DHT22;5262;59.958;17.726;2022-11-20T07:32:39;-0.30;99.90
10431;DHT22;5262;59.958;17.726;2022-11-20T07:35:05;-0.30;99.90
10431;DHT22;5262;59.958;17.726;2022-11-20T07:37:34;-0.30;99.90
10431;DHT22;5262;59.958;17.726;2022-11-20T07:39:59;-0.30;99.90
10431;DHT22;5262;59.958;17.726;2022-11-20T07:42:25;-0.30;99.90
10431;DHT22;5262;59.958;17.726;2022-11-20T07:44:51;-0.20;99.90
10431;DHT22;5262;59.958;17.726;2022-11-20T07:47:16;-0.20;99.90
10431;DHT22;5262;59.958;17.726;2022-11-20T07:49:42;-0.20;99.90
10431;DHT22;5262;59.958;17.726;2022-11-20T07:52:08;-0.20;99.90
10431;DHT22;5262;59.958;17.726;2022-11-20T07:54:33;-0.20;99.90
10431;DHT22;5262;59.958;17.726;2022-11-20T07:56:59;-0.20;99.90
10431;DHT22;5262;59.958;17.726;2022-11-20T07:59:24;-0.10;99.90
10431;DHT22;5262;59.958;17.726;2022-11-20T08:01:50;-0.20;99.90
10431;DHT22;5262;59.958;17.726;2022-11-20T08:04:16;-0.20;99.90
10431;DHT22;5262;59.958;17.726;2022-11-20T08:06:42;-0.20;99.90
10431;DHT22;5262;59.958;17.726;2022-11-20T08:09:07;-0.10;99.90
10431;DHT22;5262;59.958;17.726;2022-11-20T08:11:33;-0.10;99.90
10431;DHT22;5262;59.958;17.726;2022-11-20T08:14:17;-0.10;99.90
10431;DHT22;5262;59.958;17.726;2022-11-20T08:16:45;-0.10;99.90
10431;DHT22;5262;59.958;17.726;2022-11-20T08:19:12;-0.10;99.90
10431;DHT22;5262;59.958;17.726;2022-11-20T08:21:38;-0.10;99.90
10431;DHT22;5262;59.958;17.726;2022-11-20T08:24:05;-0.10;99.90
10431;DHT22;5262;59.958;17.726;2022-11-20T08:26:30;-0.20;99.90
10431;DHT22;5262;59.958;17.726;2022-11-20T08:28:57;-0.10;99.90
10431;DHT22;5262;59.958;17.726;2022-11-20T08:31:24;-0.10;99.90
10431;DHT22;5262;59.958;17.726;2022-11-20T08:33:50;-0.10;99.90
10431;DHT22;5262;59.958;17.726;2022-11-20T08:36:16;-0.10;99.90
10431;DHT22;5262;59.958;17.726;2022-11-20T08:38:47;-0.10;99.90
10431;DHT22;5262;59.958;17.726;2022-11-20T08:41:13;-0.10;99.90
10431;DHT22;5262;59.958;17.726;2022-11-20T08:44:02;-0.10;99.90
10431;DHT22;5262;59.958;17.726;2022-11-20T08:46:37;-0.10;99.90
10431;DHT22;5262;59.958;17.726;2022-11-20T08:49:08;-0.10;99.90
10431;DHT22;5262;59.958;17.726;2022-11-20T08:51:34;-0.10;99.90
10431;DHT22;5262;59.958;17.726;2022-11-20T08:54:00;-0.10;99.90
10431;DHT22;5262;59.958;17.726;2022-11-20T08:56:27;-0.10;99.90
10431;DHT22;5262;59.958;17.726;2022-11-20T08:58:53;-0.10;99.90
10431;DHT22;5262;59.958;17.726;2022-11-20T09:01:20;-0.10;99.90
10431;DHT22;5262;59.958;17.726;2022-11-20T09:03:46;-0.10;99.90
10431;DHT22;5262;59.958;17.726;2022-11-20T09:06:13;-0.10;99.90
10431;DHT22;5262;59.958;17.726;2022-11-20T09:08:39;-0.10;99.90
10431;DHT22;5262;59.958;17.726;2022-11-20T09:11:05;-0.10;99.90
10431;DHT22;5262;59.958;17.726;2022-11-20T09:13:31;-0.10;99.90
10431;DHT22;5262;59.958;17.726;2022-11-20T09:16:08;-0.10;99.90
10431;DHT22;5262;59.958;17.726;2022-11-20T09:18:34;-0.10;99.90
10431;DHT22;5262;59.958;17.726;2022-11-20T09:21:06;-0.10;99.90
10431;DHT22;5262;59.958;17.726;2022-11-20T09:23:34;-0.20;99.90
10431;DHT22;5262;59.958;17.726;2022-11-20T09:26:26;-0.20;99.90
10431;DHT22;5262;59.958;17.726;2022-11-20T09:28:53;-0.20;99.90
10431;DHT22;5262;59.958;17.726;2022-11-20T09:31:23;-0.20;99.90
10431;DHT22;5262;59.958;17.726;2022-11-20T09:33:49;-0.10;99.90
10431;DHT22;5262;59.958;17.726;2022-11-20T09:36:15;-0.20;99.90
10431;DHT22;5262;59.958;17.726;2022-11-20T09:38:42;-0.10;99.90
10431;DHT22;5262;59.958;17.726;2022-11-20T09:46:55;0.10;99.90
10431;DHT22;5262;59.958;17.726;2022-11-20T09:55:01;0.00;99.90
10431;DHT22;5262;59.958;17.726;2022-11-20T09:57:38;0.00;99.90
10431;DHT22;5262;59.958;17.726;2022-11-20T10:00:10;0.20;99.90
10431;DHT22;5262;59.958;17.726;2022-11-20T10:05:30;0.20;99.90
10431;DHT22;5262;59.958;17.726;2022-11-20T10:22:07;0.00;99.90
10431;DHT22;5262;59.958;17.726;2022-11-20T10:30:25;-0.10;99.90
10431;DHT22;5262;59.958;17.726;2022-11-20T10:33:00;-0.10;99.90
10431;DHT22;5262;59.958;17.726;2022-11-20T10:35:35;0.00;99.90
10431;DHT22;5262;59.958;17.726;2022-11-20T10:38:12;0.00;99.90
10431;DHT22;5262;59.958;17.726;2022-11-20T10:40:42;0.00;99.90
10431;DHT22;5262;59.958;17.726;2022-11-20T10:43:29;-0.10;99.90
10431;DHT22;5262;59.958;17.726;2022-11-20T10:48:27;-0.10;99.90
10431;DHT22;5262;59.958;17.726;2022-11-20T11:02:00;-0.10;99.90
10431;DHT22;5262;59.958;17.726;2022-11-20T11:07:27;-0.10;99.90
10431;DHT22;5262;59.958;17.726;2022-11-20T11:09:56;-0.10;99.90
10431;DHT22;5262;59.958;17.726;2022-11-20T11:12:25;-0.10;99.90
10431;DHT22;5262;59.958;17.726;2022-11-20T11:14:53;-0.10;99.90
10431;DHT22;5262;59.958;17.726;2022-11-20T11:17:30;-0.10;99.90
10431;DHT22;5262;59.958;17.726;2022-11-20T11:20:02;-0.10;99.90
10431;DHT22;5262;59.958;17.726;2022-11-20T11:22:42;-0.10;99.90
10431;DHT22;5262;59.958;17.726;2022-11-20T11:25:38;-0.10;99.90
10431;DHT22;5262;59.958;17.726;2022-11-20T11:28:20;-0.10;99.90
10431;DHT22;5262;59.958;17.726;2022-11-20T11:30:46;-0.10;99.90
10431;DHT22;5262;59.958;17.726;2022-11-20T11:33:29;-0.10;99.90
10431;DHT22;5262;59.958;17.726;2022-11-20T11:35:59;-0.10;99.90
10431;DHT22;5262;59.958;17.726;2022-11-20T11:40:56;-0.10;99.90
10431;DHT22;5262;59.958;17.726;2022-11-20T11:43:25;-0.10;99.90
10431;DHT22;5262;59.958;17.726;2022-11-20T11:46:33;-0.10;99.90
10431;DHT22;5262;59.958;17.726;2022-11-20T11:54:51;-0.10;99.90
10431;DHT22;5262;59.958;17.726;2022-11-20T11:57:38;-0.10;99.90
10431;DHT22;5262;59.958;17.726;2022-11-20T12:00:16;-0.10;99.90
10431;DHT22;5262;59.958;17.726;2022-11-20T12:05:20;-0.10;99.90
10431;DHT22;5262;59.958;17.726;2022-11-20T12:15:58;0.00;99.90
10431;DHT22;5262;59.958;17.726;2022-11-20T12:18:25;-0.10;99.90
10431;DHT22;5262;59.958;17.726;2022-11-20T12:21:45;-0.10;99.90
10431;DHT22;5262;59.958;17.726;2022-11-20T12:29:37;-0.10;99.90
10431;DHT22;5262;59.958;17.726;2022-11-20T12:37:50;-0.10;99.90
10431;DHT22;5262;59.958;17.726;2022-11-20T12:43:01;-0.10;99.90
10431;DHT22;5262;59.958;17.726;2022-11-20T12:56:46;-0.10;99.90
10431;DHT22;5262;59.958;17.726;2022-11-20T12:59:37;-0.20;99.90
10431;DHT22;5262;59.958;17.726;2022-11-20T13:02:21;-0.20;99.90
10431;DHT22;5262;59.958;17.726;2022-11-20T13:05:31;-0.20;99.90
10431;DHT22;5262;59.958;17.726;2022-11-20T13:08:01;-0.20;99.90
10431;DHT22;5262;59.958;17.726;2022-11-20T13:10:38;-0.20;99.90
10431;DHT22;5262;59.958;17.726;2022-11-20T13:13:25;-0.20;99.90
10431;DHT22;5262;59.958;17.726;2022-11-20T13:18:40;-0.20;99.90
10431;DHT22;5262;59.958;17.726;2022-11-20T13:21:44;-0.20;99.90
10431;DHT22;5262;59.958;17.726;2022-11-20T13:29:34;-0.30;99.90
10431;DHT22;5262;59.958;17.726;2022-11-20T13:32:18;-0.20;99.90
10431;DHT22;5262;59.958;17.726;2022-11-20T13:34:58;-0.20;99.90
10431;DHT22;5262;59.958;17.726;2022-11-20T13:37:36;-0.20;99.90
10431;DHT22;5262;59.958;17.726;2022-11-20T13:42:38;-0.20;99.90
10431;DHT22;5262;59.958;17.726;2022-11-20T13:45:20;-0.30;99.90
10431;DHT22;5262;59.958;17.726;2022-11-20T13:47:50;-0.20;99.90
10431;DHT22;5262;59.958;17.726;2022-11-20T13:50:16;-0.20;99.90
10431;DHT22;5262;59.958;17.726;2022-11-20T13:53:08;-0.20;99.90
10431;DHT22;5262;59.958;17.726;2022-11-20T14:01:21;-0.30;99.90
10431;DHT22;5262;59.958;17.726;2022-11-20T14:03:48;-0.30;99.90
10431;DHT22;5262;59.958;17.726;2022-11-20T14:06:29;-0.30;99.90
10431;DHT22;5262;59.958;17.726;2022-11-20T14:08:58;-0.30;99.90
10431;DHT22;5262;59.958;17.726;2022-11-20T14:11:29;-0.30;99.90
10431;DHT22;5262;59.958;17.726;2022-11-20T14:14:13;-0.30;99.90
10431;DHT22;5262;59.958;17.726;2022-11-20T14:16:40;-0.30;99.90
10431;DHT22;5262;59.958;17.726;2022-11-20T14:19:35;-0.30;99.90
10431;DHT22;5262;59.958;17.726;2022-11-20T14:24:36;-0.30;99.90
10431;DHT22;5262;59.958;17.726;2022-11-20T14:27:02;-0.30;99.90
10431;DHT22;5262;59.958;17.726;2022-11-20T14:29:38;-0.30;99.90
10431;DHT22;5262;59.958;17.726;2022-11-20T14:32:04;-0.30;99.90
10431;DHT22;5262;59.958;17.726;2022-11-20T14:34:33;-0.30;99.90
10431;DHT22;5262;59.958;17.726;2022-11-20T14:37:05;-0.30;99.90
10431;DHT22;5262;59.958;17.726;2022-11-20T14:39:37;-0.30;99.90
10431;DHT22;5262;59.958;17.726;2022-11-20T14:42:17;-0.30;99.90
10431;DHT22;5262;59.958;17.726;2022-11-20T14:44:43;-0.30;99.90
10431;DHT22;5262;59.958;17.726;2022-11-20T14:47:12;-0.40;99.90
10431;DHT22;5262;59.958;17.726;2022-11-20T14:49:38;-0.40;99.90
10431;DHT22;5262;59.958;17.726;2022-11-20T14:52:17;-0.40;99.90
10431;DHT22;5262;59.958;17.726;2022-11-20T14:54:48;-0.40;99.90
10431;DHT22;5262;59.958;17.726;2022-11-20T14:59:46;-0.30;99.90
10431;DHT22;5262;59.958;17.726;2022-11-20T15:02:12;-0.30;99.90
10431;DHT22;5262;59.958;17.726;2022-11-20T15:04:56;-0.30;99.90
10431;DHT22;5262;59.958;17.726;2022-11-20T15:08:03;-0.30;99.90
10431;DHT22;5262;59.958;17.726;2022-11-20T15:10:29;-0.30;99.90
10431;DHT22;5262;59.958;17.726;2022-11-20T15:13:05;-0.30;99.90
10431;DHT22;5262;59.958;17.726;2022-11-20T15:18:14;-0.30;99.90
10431;DHT22;5262;59.958;17.726;2022-11-20T15:20:41;-0.30;99.90
10431;DHT22;5262;59.958;17.726;2022-11-20T15:23:18;-0.30;99.90
10431;DHT22;5262;59.958;17.726;2022-11-20T15:25:44;-0.30;99.90
10431;DHT22;5262;59.958;17.726;2022-11-20T15:28:24;-0.30;99.90
10431;DHT22;5262;59.958;17.726;2022-11-20T15:30:52;-0.30;99.90
10431;DHT22;5262;59.958;17.726;2022-11-20T15:33:18;-0.20;99.90
10431;DHT22;5262;59.958;17.726;2022-11-20T15:35:44;-0.20;99.90
10431;DHT22;5262;59.958;17.726;2022-11-20T15:38:09;-0.30;99.90
10431;DHT22;5262;59.958;17.726;2022-11-20T15:40:36;-0.30;99.90
10431;DHT22;5262;59.958;17.726;2022-11-20T15:43:02;-0.40;99.90
10431;DHT22;5262;59.958;17.726;2022-11-20T15:45:47;-0.40;99.90
10431;DHT22;5262;59.958;17.726;2022-11-20T15:48:17;-0.40;99.90
10431;DHT22;5262;59.958;17.726;2022-11-20T15:50:58;-0.40;99.90
10431;DHT22;5262;59.958;17.726;2022-11-20T15:53:24;-0.40;99.90
10431;DHT22;5262;59.958;17.726;2022-11-20T15:55:50;-0.50;99.90
10431;DHT22;5262;59.958;17.726;2022-11-20T15:58:16;-0.50;99.90
10431;DHT22;5262;59.958;17.726;2022-11-20T16:00:43;-0.50;99.90
10431;DHT22;5262;59.958;17.726;2022-11-20T16:03:12;-0.50;99.90
10431;DHT22;5262;59.958;17.726;2022-11-20T16:05:38;-0.40;99.90
10431;DHT22;5262;59.958;17.726;2022-11-20T16:08:04;-0.50;99.90
10431;DHT22;5262;59.958;17.726;2022-11-20T16:10:30;-0.40;99.90
10431;DHT22;5262;59.958;17.726;2022-11-20T16:12:56;-0.50;99.90
10431;DHT22;5262;59.958;17.726;2022-11-20T16:15:40;-0.50;99.90
10431;DHT22;5262;59.958;17.726;2022-11-20T16:18:20;-0.50;99.90
10431;DHT22;5262;59.958;17.726;2022-11-20T16:20:53;-0.50;99.90
10431;DHT22;5262;59.958;17.726;2022-11-20T16:23:20;-0.60;99.90
10431;DHT22;5262;59.958;17.726;2022-11-20T16:25:46;-0.60;99.90
10431;DHT22;5262;59.958;17.726;2022-11-20T16:28:12;-0.50;99.90
10431;DHT22;5262;59.958;17.726;2022-11-20T16:30:38;-0.60;99.90
10431;DHT22;5262;59.958;17.726;2022-11-20T16:33:09;-0.50;99.90
10431;DHT22;5262;59.958;17.726;2022-11-20T16:35:35;-0.50;99.90
10431;DHT22;5262;59.958;17.726;2022-11-20T16:38:01;-0.50;99.90
10431;DHT22;5262;59.958;17.726;2022-11-20T16:40:26;-0.50;99.90
10431;DHT22;5262;59.958;17.726;2022-11-20T16:42:52;-0.50;99.90
10431;DHT22;5262;59.958;17.726;2022-11-20T16:45:18;-0.50;99.90
10431;DHT22;5262;59.958;17.726;2022-11-20T16:47:43;-0.50;99.90
10431;DHT22;5262;59.958;17.726;2022-11-20T16:50:10;-0.50;99.90
10431;DHT22;5262;59.958;17.726;2022-11-20T16:52:35;-0.50;99.90
10431;DHT22;5262;59.958;17.726;2022-11-20T16:55:01;-0.50;99.90
10431;DHT22;5262;59.958;17.726;2022-11-20T16:57:29;-0.50;99.90
10431;DHT22;5262;59.958;17.726;2022-11-20T16:59:55;-0.60;99.90
10431;DHT22;5262;59.958;17.726;2022-11-20T17:02:21;-0.60;99.90
10431;DHT22;5262;59.958;17.726;2022-11-20T17:04:47;-0.60;99.90
10431;DHT22;5262;59.958;17.726;2022-11-20T17:07:13;-0.60;99.90
10431;DHT22;5262;59.958;17.726;2022-11-20T17:09:38;-0.60;99.90
10431;DHT22;5262;59.958;17.726;2022-11-20T17:12:04;-0.60;99.90
10431;DHT22;5262;59.958;17.726;2022-11-20T17:14:30;-0.60;99.90
10431;DHT22;5262;59.958;17.726;2022-11-20T17:16:57;-0.70;99.90
10431;DHT22;5262;59.958;17.726;2022-11-20T17:19:23;-0.70;99.90
10431;DHT22;5262;59.958;17.726;2022-11-20T17:21:48;-0.70;99.90
10431;DHT22;5262;59.958;17.726;2022-11-20T17:24:14;-0.70;99.90
10431;DHT22;5262;59.958;17.726;2022-11-20T17:26:42;-0.70;99.90
10431;DHT22;5262;59.958;17.726;2022-11-20T17:29:16;-0.70;99.90
10431;DHT22;5262;59.958;17.726;2022-11-20T17:31:43;-0.70;99.90
10431;DHT22;5262;59.958;17.726;2022-11-20T17:34:13;-0.70;99.90
10431;DHT22;5262;59.958;17.726;2022-11-20T17:36:40;-0.70;99.90
10431;DHT22;5262;59.958;17.726;2022-11-20T17:39:10;-0.70;99.90
10431;DHT22;5262;59.958;17.726;2022-11-20T17:41:36;-0.70;99.90
10431;DHT22;5262;59.958;17.726;2022-11-20T17:44:02;-0.70;99.90
10431;DHT22;5262;59.958;17.726;2022-11-20T17:46:30;-0.70;99.90
10431;DHT22;5262;59.958;17.726;2022-11-20T17:48:59;-0.70;99.90
10431;DHT22;5262;59.958;17.726;2022-11-20T17:51:28;-0.60;99.90